sensor_id;sensor_type;location;lat;lon;timestamp;P1;durP1;ratioP1;P2;durP2;ratioP2
16039;SDS011;8124;48.634;8.120;2022-12-18T00:00:40;54.63;;;40.30;;
16039;SDS011;8124;48.634;8.120;2022-12-18T00:05:46;54.30;;;39.70;;
16039;SDS011;8124;48.634;8.120;2022-12-18T00:10:49;54.40;;;38.50;;
16039;SDS011;8124;48.634;8.120;2022-12-18T00:15:54;59.37;;;41.13;;
16039;SDS011;8124;48.634;8.120;2022-12-18T00:20:58;58.83;;;42.00;;
16039;SDS011;8124;48.634;8.120;2022-12-18T00:26:03;53.97;;;40.30;;
16039;SDS011;8124;48.634;8.120;2022-12-18T00:31:08;60.63;;;39.80;;
16039;SDS011;8124;48.634;8.120;2022-12-18T00:36:13;54.83;;;39.73;;
16039;SDS011;8124;48.634;8.120;2022-12-18T00:41:18;61.17;;;39.80;;
16039;SDS011;8124;48.634;8.120;2022-12-18T00:46:39;50.87;;;39.13;;
16039;SDS011;8124;48.634;8.120;2022-12-18T00:51:42;57.40;;;39.53;;
16039;SDS011;8124;48.634;8.120;2022-12-18T00:56:45;60.50;;;39.10;;
16039;SDS011;8124;48.634;8.120;2022-12-18T01:01:52;63.40;;;41.20;;
16039;SDS011;8124;48.634;8.120;2022-12-18T01:06:55;58.47;;;40.53;;
16039;SDS011;8124;48.634;8.120;2022-12-18T01:11:58;57.33;;;40.93;;
16039;SDS011;8124;48.634;8.120;2022-12-18T01:17:02;56.60;;;39.33;;
16039;SDS011;8124;48.634;8.120;2022-12-18T01:22:06;52.87;;;40.60;;
16039;SDS011;8124;48.634;8.120;2022-12-18T01:27:09;50.33;;;38.97;;
16039;SDS011;8124;48.634;8.120;2022-12-18T01:32:15;57.70;;;40.73;;
16039;SDS011;8124;48.634;8.120;2022-12-18T01:37:18;55.40;;;40.03;;
16039;SDS011;8124;48.634;8.120;2022-12-18T01:42:21;55.90;;;39.90;;
16039;SDS011;8124;48.634;8.120;2022-12-18T01:47:26;59.40;;;41.83;;
16039;SDS011;8124;48.634;8.120;2022-12-18T01:52:32;59.53;;;40.80;;
16039;SDS011;8124;48.634;8.120;2022-12-18T01:57:37;49.50;;;39.30;;
16039;SDS011;8124;48.634;8.120;2022-12-18T02:02:43;57.50;;;38.60;;
16039;SDS011;8124;48.634;8.120;2022-12-18T02:07:50;53.03;;;37.57;;
16039;SDS011;8124;48.634;8.120;2022-12-18T02:13:02;51.50;;;38.20;;
16039;SDS011;8124;48.634;8.120;2022-12-18T02:18:17;64.33;;;41.83;;
16039;SDS011;8124;48.634;8.120;2022-12-18T02:23:24;87.83;;;40.63;;
16039;SDS011;8124;48.634;8.120;2022-12-18T02:28:44;58.43;;;38.93;;
16039;SDS011;8124;48.634;8.120;2022-12-18T02:33:51;55.90;;;39.43;;
16039;SDS011;8124;48.634;8.120;2022-12-18T02:38:56;58.93;;;39.73;;
16039;SDS011;8124;48.634;8.120;2022-12-18T02:44:07;53.37;;;38.63;;
16039;SDS011;8124;48.634;8.120;2022-12-18T02:49:13;52.37;;;38.27;;
16039;SDS011;8124;48.634;8.120;2022-12-18T02:54:33;55.43;;;39.33;;
16039;SDS011;8124;48.634;8.120;2022-12-18T02:59:47;60.67;;;40.53;;
16039;SDS011;8124;48.634;8.120;2022-12-18T03:04:59;51.37;;;38.20;;
16039;SDS011;8124;48.634;8.120;2022-12-18T03:10:08;52.77;;;38.73;;
16039;SDS011;8124;48.634;8.120;2022-12-18T03:15:19;50.77;;;38.13;;
16039;SDS011;8124;48.634;8.120;2022-12-18T03:20:34;52.20;;;37.10;;
16039;SDS011;8124;48.634;8.120;2022-12-18T03:25:40;51.20;;;38.23;;
16039;SDS011;8124;48.634;8.120;2022-12-18T03:30:50;53.97;;;38.47;;
16039;SDS011;8124;48.634;8.120;2022-12-18T03:35:57;51.13;;;38.00;;
16039;SDS011;8124;48.634;8.120;2022-12-18T03:41:03;58.37;;;38.20;;
16039;SDS011;8124;48.634;8.120;2022-12-18T03:46:36;51.03;;;37.43;;
16039;SDS011;8124;48.634;8.120;2022-12-18T03:51:47;49.70;;;38.00;;
16039;SDS011;8124;48.634;8.120;2022-12-18T03:56:55;53.23;;;38.57;;
16039;SDS011;8124;48.634;8.120;2022-12-18T04:02:03;53.97;;;38.37;;
16039;SDS011;8124;48.634;8.120;2022-12-18T04:07:09;59.27;;;39.97;;
16039;SDS011;8124;48.634;8.120;2022-12-18T04:12:16;57.73;;;39.77;;
16039;SDS011;8124;48.634;8.120;2022-12-18T04:17:23;44.80;;;37.30;;
16039;SDS011;8124;48.634;8.120;2022-12-18T04:22:26;53.53;;;38.37;;
16039;SDS011;8124;48.634;8.120;2022-12-18T04:27:33;51.43;;;38.23;;
16039;SDS011;8124;48.634;8.120;2022-12-18T04:32:39;49.07;;;39.00;;
16039;SDS011;8124;48.634;8.120;2022-12-18T04:37:48;48.27;;;37.30;;
16039;SDS011;8124;48.634;8.120;2022-12-18T04:42:52;50.00;;;37.33;;
16039;SDS011;8124;48.634;8.120;2022-12-18T04:47:56;51.03;;;38.07;;
16039;SDS011;8124;48.634;8.120;2022-12-18T04:52:59;48.77;;;36.20;;
16039;SDS011;8124;48.634;8.120;2022-12-18T04:58:02;44.87;;;35.73;;
16039;SDS011;8124;48.634;8.120;2022-12-18T05:03:14;55.97;;;38.10;;
16039;SDS011;8124;48.634;8.120;2022-12-18T05:08:18;53.00;;;37.77;;
16039;SDS011;8124;48.634;8.120;2022-12-18T05:13:21;56.83;;;38.63;;
16039;SDS011;8124;48.634;8.120;2022-12-18T05:18:25;49.23;;;37.13;;
16039;SDS011;8124;48.634;8.120;2022-12-18T05:23:28;47.17;;;38.13;;
16039;SDS011;8124;48.634;8.120;2022-12-18T05:28:32;49.40;;;37.50;;
16039;SDS011;8124;48.634;8.120;2022-12-18T05:33:38;54.10;;;38.37;;
16039;SDS011;8124;48.634;8.120;2022-12-18T05:38:41;47.10;;;37.83;;
16039;SDS011;8124;48.634;8.120;2022-12-18T05:43:44;46.90;;;37.50;;
16039;SDS011;8124;48.634;8.120;2022-12-18T05:48:49;51.60;;;38.63;;
16039;SDS011;8124;48.634;8.120;2022-12-18T05:53:52;59.70;;;38.80;;
16039;SDS011;8124;48.634;8.120;2022-12-18T05:58:55;57.67;;;40.57;;
16039;SDS011;8124;48.634;8.120;2022-12-18T06:03:59;54.50;;;38.90;;
16039;SDS011;8124;48.634;8.120;2022-12-18T06:09:03;53.27;;;36.87;;
16039;SDS011;8124;48.634;8.120;2022-12-18T06:14:09;54.63;;;38.60;;
16039;SDS011;8124;48.634;8.120;2022-12-18T06:19:15;53.83;;;37.47;;
16039;SDS011;8124;48.634;8.120;2022-12-18T06:24:18;54.57;;;38.70;;
16039;SDS011;8124;48.634;8.120;2022-12-18T06:29:21;55.37;;;38.33;;
16039;SDS011;8124;48.634;8.120;2022-12-18T06:34:25;56.23;;;38.60;;
16039;SDS011;8124;48.634;8.120;2022-12-18T06:39:28;59.07;;;40.13;;
16039;SDS011;8124;48.634;8.120;2022-12-18T06:44:31;52.60;;;38.07;;
16039;SDS011;8124;48.634;8.120;2022-12-18T06:49:36;51.03;;;38.50;;
16039;SDS011;8124;48.634;8.120;2022-12-18T06:54:39;51.70;;;36.00;;
16039;SDS011;8124;48.634;8.120;2022-12-18T06:59:42;55.37;;;37.53;;
16039;SDS011;8124;48.634;8.120;2022-12-18T07:04:47;53.30;;;38.93;;
16039;SDS011;8124;48.634;8.120;2022-12-18T07:09:50;51.40;;;38.20;;
16039;SDS011;8124;48.634;8.120;2022-12-18T07:14:53;54.10;;;37.63;;
16039;SDS011;8124;48.634;8.120;2022-12-18T07:19:57;57.33;;;37.97;;
16039;SDS011;8124;48.634;8.120;2022-12-18T07:25:00;49.03;;;36.23;;
16039;SDS011;8124;48.634;8.120;2022-12-18T07:30:04;49.27;;;37.73;;
16039;SDS011;8124;48.634;8.120;2022-12-18T07:35:09;56.73;;;39.27;;
16039;SDS011;8124;48.634;8.120;2022-12-18T07:40:12;50.00;;;37.07;;
16039;SDS011;8124;48.634;8.120;2022-12-18T07:45:15;49.10;;;38.87;;
16039;SDS011;8124;48.634;8.120;2022-12-18T07:50:20;53.77;;;37.40;;
16039;SDS011;8124;48.634;8.120;2022-12-18T07:55:23;50.27;;;37.47;;
16039;SDS011;8124;48.634;8.120;2022-12-18T08:00:26;54.50;;;38.33;;
16039;SDS011;8124;48.634;8.120;2022-12-18T08:05:30;47.57;;;36.93;;
16039;SDS011;8124;48.634;8.120;2022-12-18T08:10:33;55.77;;;39.40;;
16039;SDS011;8124;48.634;8.120;2022-12-18T08:15:36;50.07;;;40.27;;
16039;SDS011;8124;48.634;8.120;2022-12-18T08:20:40;59.93;;;38.80;;
16039;SDS011;8124;48.634;8.120;2022-12-18T08:25:43;47.43;;;36.37;;
16039;SDS011;8124;48.634;8.120;2022-12-18T08:30:46;51.43;;;39.03;;
16039;SDS011;8124;48.634;8.120;2022-12-18T08:35:55;56.23;;;38.43;;
16039;SDS011;8124;48.634;8.120;2022-12-18T08:40:58;61.33;;;43.37;;
16039;SDS011;8124;48.634;8.120;2022-12-18T08:46:02;47.23;;;36.93;;
16039;SDS011;8124;48.634;8.120;2022-12-18T08:51:06;49.33;;;37.57;;
16039;SDS011;8124;48.634;8.120;2022-12-18T08:56:11;48.13;;;36.90;;
16039;SDS011;8124;48.634;8.120;2022-12-18T09:01:14;49.27;;;36.57;;
16039;SDS011;8124;48.634;8.120;2022-12-18T09:06:19;52.87;;;37.67;;
16039;SDS011;8124;48.634;8.120;2022-12-18T09:11:24;51.50;;;38.17;;
16039;SDS011;8124;48.634;8.120;2022-12-18T09:16:29;52.83;;;38.00;;
16039;SDS011;8124;48.634;8.120;2022-12-18T09:21:37;48.40;;;36.57;;
16039;SDS011;8124;48.634;8.120;2022-12-18T09:26:45;55.03;;;37.70;;
16039;SDS011;8124;48.634;8.120;2022-12-18T09:31:48;47.80;;;37.40;;
16039;SDS011;8124;48.634;8.120;2022-12-18T09:36:53;50.10;;;38.93;;
16039;SDS011;8124;48.634;8.120;2022-12-18T09:41:57;59.30;;;39.77;;
16039;SDS011;8124;48.634;8.120;2022-12-18T09:47:03;55.67;;;38.67;;
16039;SDS011;8124;48.634;8.120;2022-12-18T09:52:14;50.83;;;38.47;;
16039;SDS011;8124;48.634;8.120;2022-12-18T09:57:21;57.93;;;40.73;;
16039;SDS011;8124;48.634;8.120;2022-12-18T10:02:30;57.50;;;39.70;;
16039;SDS011;8124;48.634;8.120;2022-12-18T10:07:38;56.50;;;41.17;;
16039;SDS011;8124;48.634;8.120;2022-12-18T10:12:56;56.23;;;37.73;;
16039;SDS011;8124;48.634;8.120;2022-12-18T10:18:10;50.93;;;37.73;;
16039;SDS011;8124;48.634;8.120;2022-12-18T10:23:25;48.00;;;36.73;;
16039;SDS011;8124;48.634;8.120;2022-12-18T10:28:33;54.67;;;38.37;;
16039;SDS011;8124;48.634;8.120;2022-12-18T10:33:38;44.90;;;35.80;;
16039;SDS011;8124;48.634;8.120;2022-12-18T10:38:43;48.63;;;37.90;;
16039;SDS011;8124;48.634;8.120;2022-12-18T10:43:46;49.00;;;38.53;;
16039;SDS011;8124;48.634;8.120;2022-12-18T10:48:51;57.80;;;39.30;;
16039;SDS011;8124;48.634;8.120;2022-12-18T10:53:59;49.37;;;37.73;;
16039;SDS011;8124;48.634;8.120;2022-12-18T10:59:07;49.80;;;36.30;;
16039;SDS011;8124;48.634;8.120;2022-12-18T11:04:15;47.27;;;37.03;;
16039;SDS011;8124;48.634;8.120;2022-12-18T11:09:22;51.47;;;38.57;;
16039;SDS011;8124;48.634;8.120;2022-12-18T11:14:27;57.90;;;39.90;;
16039;SDS011;8124;48.634;8.120;2022-12-18T11:19:32;50.30;;;36.73;;
16039;SDS011;8124;48.634;8.120;2022-12-18T11:24:38;53.20;;;39.03;;
16039;SDS011;8124;48.634;8.120;2022-12-18T11:29:41;49.57;;;38.20;;
16039;SDS011;8124;48.634;8.120;2022-12-18T11:34:48;50.30;;;37.57;;
16039;SDS011;8124;48.634;8.120;2022-12-18T11:40:01;53.00;;;38.63;;
16039;SDS011;8124;48.634;8.120;2022-12-18T11:45:18;58.07;;;42.00;;
16039;SDS011;8124;48.634;8.120;2022-12-18T11:50:30;51.90;;;38.80;;
16039;SDS011;8124;48.634;8.120;2022-12-18T11:55:39;52.10;;;39.57;;
16039;SDS011;8124;48.634;8.120;2022-12-18T12:00:49;48.00;;;38.00;;
16039;SDS011;8124;48.634;8.120;2022-12-18T12:06:04;61.77;;;40.60;;
16039;SDS011;8124;48.634;8.120;2022-12-18T12:11:18;57.23;;;39.60;;
16039;SDS011;8124;48.634;8.120;2022-12-18T12:16:32;50.67;;;39.30;;
16039;SDS011;8124;48.634;8.120;2022-12-18T12:21:45;55.60;;;40.17;;
16039;SDS011;8124;48.634;8.120;2022-12-18T12:26:57;54.17;;;40.03;;
16039;SDS011;8124;48.634;8.120;2022-12-18T12:32:15;51.10;;;38.70;;
16039;SDS011;8124;48.634;8.120;2022-12-18T12:37:28;59.60;;;40.57;;
16039;SDS011;8124;48.634;8.120;2022-12-18T12:42:43;59.07;;;41.00;;
16039;SDS011;8124;48.634;8.120;2022-12-18T12:48:11;54.53;;;40.23;;
16039;SDS011;8124;48.634;8.120;2022-12-18T12:53:22;50.57;;;40.87;;
16039;SDS011;8124;48.634;8.120;2022-12-18T12:58:31;57.60;;;39.93;;
16039;SDS011;8124;48.634;8.120;2022-12-18T13:03:43;59.10;;;42.10;;
16039;SDS011;8124;48.634;8.120;2022-12-18T13:08:53;59.33;;;42.50;;
16039;SDS011;8124;48.634;8.120;2022-12-18T13:13:59;58.83;;;40.77;;
16039;SDS011;8124;48.634;8.120;2022-12-18T13:19:03;65.23;;;43.53;;
16039;SDS011;8124;48.634;8.120;2022-12-18T13:24:14;63.90;;;42.83;;
16039;SDS011;8124;48.634;8.120;2022-12-18T13:34:48;58.70;;;41.23;;
16039;SDS011;8124;48.634;8.120;2022-12-18T13:46:03;58.27;;;42.57;;
16039;SDS011;8124;48.634;8.120;2022-12-18T13:51:20;63.83;;;44.67;;
16039;SDS011;8124;48.634;8.120;2022-12-18T13:56:26;63.83;;;42.30;;
16039;SDS011;8124;48.634;8.120;2022-12-18T14:01:32;76.57;;;45.47;;
16039;SDS011;8124;48.634;8.120;2022-12-18T14:06:43;56.53;;;43.47;;
16039;SDS011;8124;48.634;8.120;2022-12-18T14:11:47;64.57;;;42.70;;
16039;SDS011;8124;48.634;8.120;2022-12-18T14:16:53;58.70;;;44.60;;
16039;SDS011;8124;48.634;8.120;2022-12-18T14:21:56;60.33;;;41.10;;
16039;SDS011;8124;48.634;8.120;2022-12-18T14:27:11;61.70;;;43.33;;
16039;SDS011;8124;48.634;8.120;2022-12-18T14:32:23;65.80;;;43.87;;
16039;SDS011;8124;48.634;8.120;2022-12-18T14:37:26;59.00;;;42.43;;
16039;SDS011;8124;48.634;8.120;2022-12-18T14:42:29;59.10;;;43.10;;
16039;SDS011;8124;48.634;8.120;2022-12-18T14:47:34;59.73;;;42.13;;
16039;SDS011;8124;48.634;8.120;2022-12-18T14:52:37;61.87;;;42.50;;
16039;SDS011;8124;48.634;8.120;2022-12-18T14:57:40;71.77;;;46.40;;
16039;SDS011;8124;48.634;8.120;2022-12-18T15:02:46;63.67;;;44.70;;
16039;SDS011;8124;48.634;8.120;2022-12-18T15:07:51;64.10;;;42.33;;
16039;SDS011;8124;48.634;8.120;2022-12-18T15:13:09;59.77;;;42.60;;
16039;SDS011;8124;48.634;8.120;2022-12-18T15:18:26;66.47;;;43.90;;
16039;SDS011;8124;48.634;8.120;2022-12-18T15:23:34;72.03;;;44.97;;
16039;SDS011;8124;48.634;8.120;2022-12-18T15:28:39;66.00;;;43.37;;
16039;SDS011;8124;48.634;8.120;2022-12-18T15:34:00;61.73;;;44.57;;
16039;SDS011;8124;48.634;8.120;2022-12-18T15:39:12;64.53;;;44.07;;
16039;SDS011;8124;48.634;8.120;2022-12-18T15:44:20;71.13;;;45.17;;
16039;SDS011;8124;48.634;8.120;2022-12-18T15:49:27;61.77;;;44.13;;
16039;SDS011;8124;48.634;8.120;2022-12-18T15:54:30;69.50;;;47.17;;
16039;SDS011;8124;48.634;8.120;2022-12-18T15:59:51;75.17;;;44.83;;
16039;SDS011;8124;48.634;8.120;2022-12-18T16:04:57;67.07;;;45.43;;
16039;SDS011;8124;48.634;8.120;2022-12-18T16:10:00;68.63;;;44.63;;
16039;SDS011;8124;48.634;8.120;2022-12-18T16:15:04;64.70;;;43.93;;
16039;SDS011;8124;48.634;8.120;2022-12-18T16:20:13;69.83;;;45.70;;
16039;SDS011;8124;48.634;8.120;2022-12-18T16:25:18;68.30;;;44.73;;
16039;SDS011;8124;48.634;8.120;2022-12-18T16:30:23;66.37;;;43.87;;
16039;SDS011;8124;48.634;8.120;2022-12-18T16:35:33;67.83;;;44.37;;
16039;SDS011;8124;48.634;8.120;2022-12-18T16:40:38;69.57;;;46.80;;
16039;SDS011;8124;48.634;8.120;2022-12-18T16:46:03;66.40;;;43.53;;
16039;SDS011;8124;48.634;8.120;2022-12-18T16:51:07;64.20;;;44.17;;
16039;SDS011;8124;48.634;8.120;2022-12-18T16:56:10;80.87;;;43.53;;
16039;SDS011;8124;48.634;8.120;2022-12-18T17:01:13;74.63;;;46.97;;
16039;SDS011;8124;48.634;8.120;2022-12-18T17:06:17;73.87;;;45.10;;
16039;SDS011;8124;48.634;8.120;2022-12-18T17:11:20;66.10;;;44.77;;
16039;SDS011;8124;48.634;8.120;2022-12-18T17:16:25;73.63;;;46.07;;
16039;SDS011;8124;48.634;8.120;2022-12-18T17:21:30;70.40;;;44.80;;
16039;SDS011;8124;48.634;8.120;2022-12-18T17:26:33;69.47;;;45.60;;
16039;SDS011;8124;48.634;8.120;2022-12-18T17:31:36;73.47;;;45.93;;
16039;SDS011;8124;48.634;8.120;2022-12-18T17:36:40;68.37;;;45.50;;
16039;SDS011;8124;48.634;8.120;2022-12-18T17:41:44;67.07;;;45.03;;
16039;SDS011;8124;48.634;8.120;2022-12-18T17:46:47;74.10;;;46.13;;
16039;SDS011;8124;48.634;8.120;2022-12-18T17:51:52;67.73;;;44.80;;
16039;SDS011;8124;48.634;8.120;2022-12-18T17:56:55;74.67;;;45.23;;
16039;SDS011;8124;48.634;8.120;2022-12-18T18:01:57;63.60;;;45.27;;
16039;SDS011;8124;48.634;8.120;2022-12-18T18:07:02;65.43;;;47.07;;
16039;SDS011;8124;48.634;8.120;2022-12-18T18:12:07;69.30;;;46.97;;
16039;SDS011;8124;48.634;8.120;2022-12-18T18:17:27;81.87;;;47.17;;
16039;SDS011;8124;48.634;8.120;2022-12-18T18:22:32;74.13;;;46.50;;
16039;SDS011;8124;48.634;8.120;2022-12-18T18:27:35;79.03;;;46.63;;
16039;SDS011;8124;48.634;8.120;2022-12-18T18:32:39;74.97;;;47.87;;
16039;SDS011;8124;48.634;8.120;2022-12-18T18:37:47;74.30;;;47.13;;
16039;SDS011;8124;48.634;8.120;2022-12-18T18:42:52;71.83;;;48.17;;
16039;SDS011;8124;48.634;8.120;2022-12-18T18:47:54;84.27;;;49.90;;
16039;SDS011;8124;48.634;8.120;2022-12-18T18:53:00;76.77;;;46.80;;
16039;SDS011;8124;48.634;8.120;2022-12-18T18:58:03;73.67;;;46.60;;
16039;SDS011;8124;48.634;8.120;2022-12-18T19:03:07;71.77;;;46.17;;
16039;SDS011;8124;48.634;8.120;2022-12-18T19:08:12;69.53;;;47.33;;
16039;SDS011;8124;48.634;8.120;2022-12-18T19:13:14;69.90;;;46.10;;
16039;SDS011;8124;48.634;8.120;2022-12-18T19:18:24;76.77;;;48.87;;
16039;SDS011;8124;48.634;8.120;2022-12-18T19:23:29;63.57;;;45.30;;
16039;SDS011;8124;48.634;8.120;2022-12-18T19:28:33;67.47;;;45.47;;
16039;SDS011;8124;48.634;8.120;2022-12-18T19:33:37;80.00;;;47.93;;
16039;SDS011;8124;48.634;8.120;2022-12-18T19:38:45;90.17;;;49.73;;
16039;SDS011;8124;48.634;8.120;2022-12-18T19:43:49;77.10;;;49.50;;
16039;SDS011;8124;48.634;8.120;2022-12-18T19:48:53;74.50;;;50.00;;
16039;SDS011;8124;48.634;8.120;2022-12-18T19:53:59;74.30;;;49.33;;
16039;SDS011;8124;48.634;8.120;2022-12-18T19:59:03;68.83;;;47.70;;
16039;SDS011;8124;48.634;8.120;2022-12-18T20:04:06;74.87;;;50.20;;
16039;SDS011;8124;48.634;8.120;2022-12-18T20:09:11;73.30;;;48.37;;
16039;SDS011;8124;48.634;8.120;2022-12-18T20:14:14;80.03;;;47.67;;
16039;SDS011;8124;48.634;8.120;2022-12-18T20:19:23;78.23;;;48.17;;
16039;SDS011;8124;48.634;8.120;2022-12-18T20:24:29;77.50;;;49.83;;
16039;SDS011;8124;48.634;8.120;2022-12-18T20:29:32;80.27;;;49.03;;
16039;SDS011;8124;48.634;8.120;2022-12-18T20:34:35;77.27;;;48.53;;
16039;SDS011;8124;48.634;8.120;2022-12-18T20:39:40;73.43;;;48.67;;
16039;SDS011;8124;48.634;8.120;2022-12-18T20:44:43;74.53;;;47.80;;
16039;SDS011;8124;48.634;8.120;2022-12-18T20:49:46;78.73;;;49.30;;
16039;SDS011;8124;48.634;8.120;2022-12-18T20:54:51;70.90;;;48.17;;
16039;SDS011;8124;48.634;8.120;2022-12-18T20:59:54;71.93;;;49.07;;
16039;SDS011;8124;48.634;8.120;2022-12-18T21:04:57;75.80;;;50.17;;
16039;SDS011;8124;48.634;8.120;2022-12-18T21:10:02;73.53;;;48.00;;
16039;SDS011;8124;48.634;8.120;2022-12-18T21:15:08;73.83;;;48.10;;
16039;SDS011;8124;48.634;8.120;2022-12-18T21:20:11;80.73;;;49.17;;
16039;SDS011;8124;48.634;8.120;2022-12-18T21:25:20;77.87;;;50.77;;
16039;SDS011;8124;48.634;8.120;2022-12-18T21:30:23;75.07;;;50.47;;
16039;SDS011;8124;48.634;8.120;2022-12-18T21:35:26;76.80;;;47.50;;
16039;SDS011;8124;48.634;8.120;2022-12-18T21:40:33;73.13;;;48.13;;
16039;SDS011;8124;48.634;8.120;2022-12-18T21:45:37;83.40;;;48.60;;
16039;SDS011;8124;48.634;8.120;2022-12-18T21:50:40;69.70;;;48.53;;
16039;SDS011;8124;48.634;8.120;2022-12-18T21:55:44;79.47;;;49.80;;
16039;SDS011;8124;48.634;8.120;2022-12-18T22:00:48;71.83;;;50.33;;
16039;SDS011;8124;48.634;8.120;2022-12-18T22:05:51;76.83;;;48.93;;
16039;SDS011;8124;48.634;8.120;2022-12-18T22:11:11;79.80;;;51.73;;
16039;SDS011;8124;48.634;8.120;2022-12-18T22:16:16;73.40;;;51.00;;
16039;SDS011;8124;48.634;8.120;2022-12-18T22:21:22;73.20;;;49.23;;
16039;SDS011;8124;48.634;8.120;2022-12-18T22:26:32;81.33;;;49.97;;
16039;SDS011;8124;48.634;8.120;2022-12-18T22:31:40;73.13;;;49.30;;
16039;SDS011;8124;48.634;8.120;2022-12-18T22:36:44;72.80;;;48.00;;
16039;SDS011;8124;48.634;8.120;2022-12-18T22:41:50;76.20;;;50.30;;
16039;SDS011;8124;48.634;8.120;2022-12-18T22:46:54;73.67;;;46.60;;
16039;SDS011;8124;48.634;8.120;2022-12-18T22:52:07;74.53;;;48.33;;
16039;SDS011;8124;48.634;8.120;2022-12-18T22:57:12;75.77;;;49.80;;
16039;SDS011;8124;48.634;8.120;2022-12-18T23:02:15;74.13;;;48.00;;
16039;SDS011;8124;48.634;8.120;2022-12-18T23:07:20;79.80;;;50.53;;
16039;SDS011;8124;48.634;8.120;2022-12-18T23:12:24;76.57;;;48.87;;
16039;SDS011;8124;48.634;8.120;2022-12-18T23:17:27;73.83;;;48.17;;
16039;SDS011;8124;48.634;8.120;2022-12-18T23:22:30;71.67;;;48.47;;
16039;SDS011;8124;48.634;8.120;2022-12-18T23:27:34;77.67;;;50.67;;
16039;SDS011;8124;48.634;8.120;2022-12-18T23:32:37;74.57;;;49.13;;
16039;SDS011;8124;48.634;8.120;2022-12-18T23:37:40;72.67;;;49.60;;
16039;SDS011;8124;48.634;8.120;2022-12-18T23:43:00;79.00;;;50.47;;
16039;SDS011;8124;48.634;8.120;2022-12-18T23:48:03;71.60;;;47.83;;
16039;SDS011;8124;48.634;8.120;2022-12-18T23:53:06;79.33;;;49.57;;
16039;SDS011;8124;48.634;8.120;2022-12-18T23:58:15;70.90;;;49.10;;
